sensor_id;sensor_type;location;lat;lon;timestamp;P1;durP1;ratioP1;P2;durP2;ratioP2
38224;SDS011;24025;48.138;11.428;2024-03-07T00:00:28;8.40;;;6.70;;
38224;SDS011;24025;48.138;11.428;2024-03-07T00:02:59;9.85;;;6.75;;
38224;SDS011;24025;48.138;11.428;2024-03-07T00:05:31;9.32;;;6.90;;
38224;SDS011;24025;48.138;11.428;2024-03-07T00:08:03;10.60;;;6.78;;
38224;SDS011;24025;48.138;11.428;2024-03-07T00:10:35;9.98;;;6.95;;
38224;SDS011;24025;48.138;11.428;2024-03-07T00:13:07;9.15;;;6.63;;
38224;SDS011;24025;48.138;11.428;2024-03-07T00:15:39;10.60;;;6.57;;
38224;SDS011;24025;48.138;11.428;2024-03-07T00:18:13;8.90;;;6.88;;
38224;SDS011;24025;48.138;11.428;2024-03-07T00:20:46;9.75;;;7.13;;
38224;SDS011;24025;48.138;11.428;2024-03-07T00:23:18;8.50;;;6.55;;
38224;SDS011;24025;48.138;11.428;2024-03-07T00:25:50;11.87;;;7.40;;
38224;SDS011;24025;48.138;11.428;2024-03-07T00:28:21;9.57;;;7.07;;
38224;SDS011;24025;48.138;11.428;2024-03-07T00:30:53;12.85;;;7.85;;
38224;SDS011;24025;48.138;11.428;2024-03-07T00:33:26;11.93;;;7.50;;
38224;SDS011;24025;48.138;11.428;2024-03-07T00:36:17;12.30;;;7.78;;
38224;SDS011;24025;48.138;11.428;2024-03-07T00:38:49;11.98;;;7.47;;
38224;SDS011;24025;48.138;11.428;2024-03-07T00:41:21;15.82;;;9.68;;
38224;SDS011;24025;48.138;11.428;2024-03-07T00:43:52;13.20;;;8.32;;
38224;SDS011;24025;48.138;11.428;2024-03-07T00:46:24;16.07;;;8.13;;
38224;SDS011;24025;48.138;11.428;2024-03-07T00:48:56;13.80;;;8.60;;
38224;SDS011;24025;48.138;11.428;2024-03-07T00:51:28;18.67;;;9.18;;
38224;SDS011;24025;48.138;11.428;2024-03-07T00:54:00;16.38;;;9.30;;
38224;SDS011;24025;48.138;11.428;2024-03-07T00:56:32;15.02;;;9.00;;
38224;SDS011;24025;48.138;11.428;2024-03-07T01:01:37;18.05;;;9.75;;
38224;SDS011;24025;48.138;11.428;2024-03-07T01:04:09;16.85;;;8.77;;
38224;SDS011;24025;48.138;11.428;2024-03-07T01:06:41;11.63;;;7.75;;
38224;SDS011;24025;48.138;11.428;2024-03-07T01:09:12;13.82;;;8.60;;
38224;SDS011;24025;48.138;11.428;2024-03-07T01:11:50;17.63;;;9.50;;
38224;SDS011;24025;48.138;11.428;2024-03-07T01:14:22;14.35;;;9.27;;
38224;SDS011;24025;48.138;11.428;2024-03-07T01:19:25;15.00;;;8.75;;
38224;SDS011;24025;48.138;11.428;2024-03-07T01:21:57;17.57;;;10.00;;
38224;SDS011;24025;48.138;11.428;2024-03-07T01:24:28;19.30;;;10.27;;
38224;SDS011;24025;48.138;11.428;2024-03-07T01:27:00;17.92;;;9.65;;
38224;SDS011;24025;48.138;11.428;2024-03-07T01:29:32;20.95;;;9.75;;
38224;SDS011;24025;48.138;11.428;2024-03-07T01:32:04;15.32;;;9.50;;
38224;SDS011;24025;48.138;11.428;2024-03-07T01:34:35;17.30;;;9.47;;
38224;SDS011;24025;48.138;11.428;2024-03-07T01:37:07;16.52;;;10.27;;
38224;SDS011;24025;48.138;11.428;2024-03-07T01:39:39;17.60;;;10.07;;
38224;SDS011;24025;48.138;11.428;2024-03-07T01:42:11;15.33;;;9.40;;
38224;SDS011;24025;48.138;11.428;2024-03-07T01:44:42;17.97;;;9.77;;
38224;SDS011;24025;48.138;11.428;2024-03-07T01:47:15;17.02;;;10.15;;
38224;SDS011;24025;48.138;11.428;2024-03-07T01:49:47;17.73;;;9.93;;
38224;SDS011;24025;48.138;11.428;2024-03-07T01:52:19;18.30;;;10.40;;
38224;SDS011;24025;48.138;11.428;2024-03-07T01:54:53;19.02;;;10.32;;
38224;SDS011;24025;48.138;11.428;2024-03-07T01:57:25;18.20;;;10.85;;
38224;SDS011;24025;48.138;11.428;2024-03-07T01:59:57;20.13;;;10.27;;
38224;SDS011;24025;48.138;11.428;2024-03-07T02:02:29;20.10;;;10.88;;
38224;SDS011;24025;48.138;11.428;2024-03-07T02:05:01;17.77;;;9.93;;
38224;SDS011;24025;48.138;11.428;2024-03-07T02:07:33;21.88;;;10.98;;
38224;SDS011;24025;48.138;11.428;2024-03-07T02:10:05;21.42;;;11.20;;
38224;SDS011;24025;48.138;11.428;2024-03-07T02:12:37;20.23;;;10.68;;
38224;SDS011;24025;48.138;11.428;2024-03-07T02:15:09;18.50;;;11.07;;
38224;SDS011;24025;48.138;11.428;2024-03-07T02:17:40;18.55;;;10.85;;
38224;SDS011;24025;48.138;11.428;2024-03-07T02:20:14;18.67;;;9.80;;
38224;SDS011;24025;48.138;11.428;2024-03-07T02:22:47;18.63;;;10.50;;
38224;SDS011;24025;48.138;11.428;2024-03-07T02:25:18;21.08;;;11.88;;
38224;SDS011;24025;48.138;11.428;2024-03-07T02:30:22;22.60;;;11.07;;
38224;SDS011;24025;48.138;11.428;2024-03-07T02:32:54;22.80;;;12.05;;
38224;SDS011;24025;48.138;11.428;2024-03-07T02:35:27;19.70;;;11.30;;
38224;SDS011;24025;48.138;11.428;2024-03-07T02:37:59;18.90;;;11.32;;
38224;SDS011;24025;48.138;11.428;2024-03-07T02:40:31;21.17;;;12.07;;
38224;SDS011;24025;48.138;11.428;2024-03-07T02:43:03;21.60;;;12.00;;
38224;SDS011;24025;48.138;11.428;2024-03-07T02:45:36;21.65;;;12.32;;
38224;SDS011;24025;48.138;11.428;2024-03-07T02:48:07;22.40;;;11.57;;
38224;SDS011;24025;48.138;11.428;2024-03-07T02:50:41;21.48;;;11.93;;
38224;SDS011;24025;48.138;11.428;2024-03-07T02:53:13;21.92;;;11.40;;
38224;SDS011;24025;48.138;11.428;2024-03-07T02:55:44;20.65;;;12.00;;
38224;SDS011;24025;48.138;11.428;2024-03-07T02:58:16;22.40;;;12.33;;
38224;SDS011;24025;48.138;11.428;2024-03-07T03:00:47;29.47;;;14.50;;
38224;SDS011;24025;48.138;11.428;2024-03-07T03:05:51;23.30;;;12.93;;
38224;SDS011;24025;48.138;11.428;2024-03-07T03:08:23;28.13;;;13.43;;
38224;SDS011;24025;48.138;11.428;2024-03-07T03:10:55;26.15;;;14.07;;
38224;SDS011;24025;48.138;11.428;2024-03-07T03:15:59;28.83;;;13.93;;
38224;SDS011;24025;48.138;11.428;2024-03-07T03:18:31;25.27;;;13.75;;
38224;SDS011;24025;48.138;11.428;2024-03-07T03:21:03;22.52;;;13.43;;
38224;SDS011;24025;48.138;11.428;2024-03-07T03:23:34;26.15;;;13.32;;
38224;SDS011;24025;48.138;11.428;2024-03-07T03:26:06;26.58;;;13.43;;
38224;SDS011;24025;48.138;11.428;2024-03-07T03:28:38;27.00;;;14.38;;
38224;SDS011;24025;48.138;11.428;2024-03-07T03:31:12;24.52;;;14.00;;
38224;SDS011;24025;48.138;11.428;2024-03-07T03:33:45;23.77;;;12.70;;
38224;SDS011;24025;48.138;11.428;2024-03-07T03:36:17;25.00;;;13.98;;
38224;SDS011;24025;48.138;11.428;2024-03-07T03:38:50;25.80;;;13.85;;
38224;SDS011;24025;48.138;11.428;2024-03-07T03:41:22;25.20;;;14.00;;
38224;SDS011;24025;48.138;11.428;2024-03-07T03:43:54;31.08;;;16.48;;
38224;SDS011;24025;48.138;11.428;2024-03-07T03:46:25;26.05;;;14.95;;
38224;SDS011;24025;48.138;11.428;2024-03-07T03:48:57;30.23;;;15.32;;
38224;SDS011;24025;48.138;11.428;2024-03-07T03:51:29;25.60;;;14.43;;
38224;SDS011;24025;48.138;11.428;2024-03-07T03:54:01;28.50;;;16.15;;
38224;SDS011;24025;48.138;11.428;2024-03-07T03:56:32;26.73;;;16.15;;
38224;SDS011;24025;48.138;11.428;2024-03-07T03:59:04;31.48;;;15.93;;
38224;SDS011;24025;48.138;11.428;2024-03-07T04:01:36;29.13;;;15.75;;
38224;SDS011;24025;48.138;11.428;2024-03-07T04:04:07;25.52;;;14.95;;
38224;SDS011;24025;48.138;11.428;2024-03-07T04:06:40;30.80;;;14.95;;
38224;SDS011;24025;48.138;11.428;2024-03-07T04:09:12;29.67;;;15.45;;
38224;SDS011;24025;48.138;11.428;2024-03-07T04:11:46;30.80;;;15.10;;
38224;SDS011;24025;48.138;11.428;2024-03-07T04:14:18;40.15;;;16.50;;
38224;SDS011;24025;48.138;11.428;2024-03-07T04:16:51;32.20;;;16.77;;
38224;SDS011;24025;48.138;11.428;2024-03-07T04:19:22;33.35;;;16.77;;
38224;SDS011;24025;48.138;11.428;2024-03-07T04:21:54;31.92;;;16.85;;
38224;SDS011;24025;48.138;11.428;2024-03-07T04:24:26;31.60;;;17.43;;
38224;SDS011;24025;48.138;11.428;2024-03-07T04:26:58;32.80;;;18.30;;
38224;SDS011;24025;48.138;11.428;2024-03-07T04:29:36;36.58;;;19.10;;
38224;SDS011;24025;48.138;11.428;2024-03-07T04:32:08;40.50;;;19.60;;
38224;SDS011;24025;48.138;11.428;2024-03-07T04:34:40;37.83;;;18.95;;
38224;SDS011;24025;48.138;11.428;2024-03-07T04:37:12;34.87;;;19.33;;
38224;SDS011;24025;48.138;11.428;2024-03-07T04:39:43;38.72;;;20.23;;
38224;SDS011;24025;48.138;11.428;2024-03-07T04:42:15;37.17;;;20.02;;
38224;SDS011;24025;48.138;11.428;2024-03-07T04:44:47;41.17;;;20.00;;
38224;SDS011;24025;48.138;11.428;2024-03-07T04:47:19;38.53;;;20.70;;
38224;SDS011;24025;48.138;11.428;2024-03-07T04:49:50;35.33;;;19.17;;
38224;SDS011;24025;48.138;11.428;2024-03-07T04:52:22;42.28;;;20.38;;
38224;SDS011;24025;48.138;11.428;2024-03-07T04:54:53;37.33;;;19.48;;
38224;SDS011;24025;48.138;11.428;2024-03-07T04:57:26;39.00;;;19.85;;
38224;SDS011;24025;48.138;11.428;2024-03-07T04:59:58;34.97;;;19.25;;
38224;SDS011;24025;48.138;11.428;2024-03-07T05:02:30;44.30;;;19.70;;
38224;SDS011;24025;48.138;11.428;2024-03-07T05:05:02;36.10;;;19.00;;
38224;SDS011;24025;48.138;11.428;2024-03-07T05:07:33;37.08;;;18.08;;
38224;SDS011;24025;48.138;11.428;2024-03-07T05:10:07;35.65;;;18.45;;
38224;SDS011;24025;48.138;11.428;2024-03-07T05:12:39;32.60;;;17.70;;
38224;SDS011;24025;48.138;11.428;2024-03-07T05:15:11;30.52;;;17.65;;
38224;SDS011;24025;48.138;11.428;2024-03-07T05:17:42;40.22;;;19.35;;
38224;SDS011;24025;48.138;11.428;2024-03-07T05:20:15;33.83;;;18.23;;
38224;SDS011;24025;48.138;11.428;2024-03-07T05:22:47;37.05;;;18.02;;
38224;SDS011;24025;48.138;11.428;2024-03-07T05:25:22;35.20;;;18.98;;
38224;SDS011;24025;48.138;11.428;2024-03-07T05:27:54;44.63;;;19.45;;
38224;SDS011;24025;48.138;11.428;2024-03-07T05:30:25;39.20;;;20.58;;
38224;SDS011;24025;48.138;11.428;2024-03-07T05:32:59;41.55;;;21.15;;
38224;SDS011;24025;48.138;11.428;2024-03-07T05:35:33;39.35;;;20.52;;
38224;SDS011;24025;48.138;11.428;2024-03-07T05:38:05;45.85;;;21.52;;
38224;SDS011;24025;48.138;11.428;2024-03-07T05:40:36;44.58;;;20.58;;
38224;SDS011;24025;48.138;11.428;2024-03-07T05:43:08;42.90;;;21.10;;
38224;SDS011;24025;48.138;11.428;2024-03-07T05:45:40;44.60;;;21.15;;
38224;SDS011;24025;48.138;11.428;2024-03-07T05:48:16;42.97;;;21.27;;
38224;SDS011;24025;48.138;11.428;2024-03-07T05:50:49;51.58;;;21.95;;
38224;SDS011;24025;48.138;11.428;2024-03-07T05:53:20;43.95;;;20.73;;
38224;SDS011;24025;48.138;11.428;2024-03-07T05:55:52;40.10;;;21.30;;
38224;SDS011;24025;48.138;11.428;2024-03-07T05:58:24;44.25;;;21.02;;
38224;SDS011;24025;48.138;11.428;2024-03-07T06:00:55;40.80;;;20.73;;
38224;SDS011;24025;48.138;11.428;2024-03-07T06:05:59;39.63;;;20.05;;
38224;SDS011;24025;48.138;11.428;2024-03-07T06:08:31;40.83;;;20.45;;
38224;SDS011;24025;48.138;11.428;2024-03-07T06:11:02;50.15;;;22.48;;
38224;SDS011;24025;48.138;11.428;2024-03-07T06:13:34;48.65;;;21.90;;
38224;SDS011;24025;48.138;11.428;2024-03-07T06:16:06;48.83;;;22.60;;
38224;SDS011;24025;48.138;11.428;2024-03-07T06:18:38;50.75;;;23.45;;
38224;SDS011;24025;48.138;11.428;2024-03-07T06:21:10;51.45;;;25.00;;
38224;SDS011;24025;48.138;11.428;2024-03-07T06:23:42;46.80;;;23.03;;
38224;SDS011;24025;48.138;11.428;2024-03-07T06:26:14;46.17;;;22.58;;
38224;SDS011;24025;48.138;11.428;2024-03-07T06:28:48;49.28;;;23.08;;
38224;SDS011;24025;48.138;11.428;2024-03-07T06:31:19;44.25;;;22.92;;
38224;SDS011;24025;48.138;11.428;2024-03-07T06:33:51;49.05;;;21.08;;
38224;SDS011;24025;48.138;11.428;2024-03-07T06:36:23;44.97;;;23.52;;
38224;SDS011;24025;48.138;11.428;2024-03-07T06:38:56;45.80;;;23.17;;
38224;SDS011;24025;48.138;11.428;2024-03-07T06:41:27;45.08;;;22.25;;
38224;SDS011;24025;48.138;11.428;2024-03-07T06:43:59;44.90;;;22.02;;
38224;SDS011;24025;48.138;11.428;2024-03-07T06:46:31;46.58;;;24.05;;
38224;SDS011;24025;48.138;11.428;2024-03-07T06:49:06;51.38;;;24.33;;
38224;SDS011;24025;48.138;11.428;2024-03-07T06:51:41;41.42;;;20.80;;
38224;SDS011;24025;48.138;11.428;2024-03-07T06:54:13;43.20;;;22.13;;
38224;SDS011;24025;48.138;11.428;2024-03-07T06:56:44;50.47;;;23.67;;
38224;SDS011;24025;48.138;11.428;2024-03-07T06:59:16;39.10;;;21.48;;
38224;SDS011;24025;48.138;11.428;2024-03-07T07:01:50;43.63;;;21.08;;
38224;SDS011;24025;48.138;11.428;2024-03-07T07:04:22;47.90;;;23.00;;
38224;SDS011;24025;48.138;11.428;2024-03-07T07:06:56;46.97;;;22.67;;
38224;SDS011;24025;48.138;11.428;2024-03-07T07:09:28;40.33;;;21.27;;
38224;SDS011;24025;48.138;11.428;2024-03-07T07:11:59;46.80;;;23.10;;
38224;SDS011;24025;48.138;11.428;2024-03-07T07:14:33;43.65;;;22.35;;
38224;SDS011;24025;48.138;11.428;2024-03-07T07:17:07;43.45;;;22.17;;
38224;SDS011;24025;48.138;11.428;2024-03-07T07:19:41;44.20;;;21.77;;
38224;SDS011;24025;48.138;11.428;2024-03-07T07:22:13;45.15;;;22.20;;
38224;SDS011;24025;48.138;11.428;2024-03-07T07:24:44;55.35;;;23.67;;
38224;SDS011;24025;48.138;11.428;2024-03-07T07:27:16;46.17;;;23.03;;
38224;SDS011;24025;48.138;11.428;2024-03-07T07:29:49;41.53;;;22.75;;
38224;SDS011;24025;48.138;11.428;2024-03-07T07:32:21;44.95;;;22.73;;
38224;SDS011;24025;48.138;11.428;2024-03-07T07:34:53;45.80;;;22.23;;
38224;SDS011;24025;48.138;11.428;2024-03-07T07:37:25;44.30;;;22.38;;
38224;SDS011;24025;48.138;11.428;2024-03-07T07:39:56;44.87;;;21.97;;
38224;SDS011;24025;48.138;11.428;2024-03-07T07:42:28;44.93;;;22.77;;
38224;SDS011;24025;48.138;11.428;2024-03-07T07:45:00;43.97;;;22.95;;
38224;SDS011;24025;48.138;11.428;2024-03-07T07:47:31;40.35;;;21.25;;
38224;SDS011;24025;48.138;11.428;2024-03-07T07:50:08;48.60;;;22.30;;
38224;SDS011;24025;48.138;11.428;2024-03-07T07:52:50;50.37;;;23.37;;
38224;SDS011;24025;48.138;11.428;2024-03-07T07:55:26;42.25;;;22.02;;
38224;SDS011;24025;48.138;11.428;2024-03-07T07:57:59;43.72;;;22.42;;
38224;SDS011;24025;48.138;11.428;2024-03-07T08:00:35;48.53;;;23.55;;
38224;SDS011;24025;48.138;11.428;2024-03-07T08:03:07;48.05;;;22.92;;
38224;SDS011;24025;48.138;11.428;2024-03-07T08:05:40;44.08;;;21.85;;
38224;SDS011;24025;48.138;11.428;2024-03-07T08:08:12;47.10;;;23.10;;
38224;SDS011;24025;48.138;11.428;2024-03-07T08:10:47;40.85;;;21.95;;
38224;SDS011;24025;48.138;11.428;2024-03-07T08:13:20;45.15;;;22.88;;
38224;SDS011;24025;48.138;11.428;2024-03-07T08:15:52;47.47;;;23.65;;
38224;SDS011;24025;48.138;11.428;2024-03-07T08:18:27;40.75;;;21.63;;
38224;SDS011;24025;48.138;11.428;2024-03-07T08:20:59;44.45;;;22.70;;
38224;SDS011;24025;48.138;11.428;2024-03-07T08:23:31;46.35;;;21.77;;
38224;SDS011;24025;48.138;11.428;2024-03-07T08:26:06;49.70;;;22.85;;
38224;SDS011;24025;48.138;11.428;2024-03-07T08:28:37;43.15;;;22.58;;
38224;SDS011;24025;48.138;11.428;2024-03-07T08:31:09;45.58;;;23.83;;
38224;SDS011;24025;48.138;11.428;2024-03-07T08:33:40;45.22;;;24.15;;
38224;SDS011;24025;48.138;11.428;2024-03-07T08:36:13;44.53;;;22.90;;
38224;SDS011;24025;48.138;11.428;2024-03-07T08:38:45;44.88;;;23.88;;
38224;SDS011;24025;48.138;11.428;2024-03-07T08:41:17;42.17;;;23.00;;
38224;SDS011;24025;48.138;11.428;2024-03-07T08:43:49;44.47;;;22.90;;
38224;SDS011;24025;48.138;11.428;2024-03-07T08:46:21;48.55;;;23.70;;
38224;SDS011;24025;48.138;11.428;2024-03-07T08:48:52;42.70;;;23.30;;
38224;SDS011;24025;48.138;11.428;2024-03-07T08:51:24;45.97;;;22.47;;
38224;SDS011;24025;48.138;11.428;2024-03-07T08:53:55;45.00;;;23.20;;
38224;SDS011;24025;48.138;11.428;2024-03-07T08:56:27;46.17;;;22.67;;
38224;SDS011;24025;48.138;11.428;2024-03-07T08:58:59;49.17;;;24.83;;
38224;SDS011;24025;48.138;11.428;2024-03-07T09:01:31;50.28;;;23.30;;
38224;SDS011;24025;48.138;11.428;2024-03-07T09:04:04;44.15;;;23.42;;
38224;SDS011;24025;48.138;11.428;2024-03-07T09:06:36;46.90;;;22.83;;
38224;SDS011;24025;48.138;11.428;2024-03-07T09:09:08;54.47;;;24.33;;
38224;SDS011;24025;48.138;11.428;2024-03-07T09:11:40;50.17;;;25.75;;
38224;SDS011;24025;48.138;11.428;2024-03-07T09:14:13;46.78;;;25.73;;
38224;SDS011;24025;48.138;11.428;2024-03-07T09:16:45;47.47;;;25.30;;
38224;SDS011;24025;48.138;11.428;2024-03-07T09:19:19;49.92;;;23.42;;
38224;SDS011;24025;48.138;11.428;2024-03-07T09:21:55;44.25;;;22.75;;
38224;SDS011;24025;48.138;11.428;2024-03-07T09:24:26;39.15;;;22.52;;
38224;SDS011;24025;48.138;11.428;2024-03-07T09:26:59;43.80;;;23.95;;
38224;SDS011;24025;48.138;11.428;2024-03-07T09:32:03;46.70;;;22.15;;
38224;SDS011;24025;48.138;11.428;2024-03-07T09:34:35;41.85;;;23.27;;
38224;SDS011;24025;48.138;11.428;2024-03-07T09:37:07;53.40;;;25.02;;
38224;SDS011;24025;48.138;11.428;2024-03-07T09:39:39;44.55;;;24.05;;
38224;SDS011;24025;48.138;11.428;2024-03-07T09:42:11;50.17;;;24.38;;
38224;SDS011;24025;48.138;11.428;2024-03-07T09:44:45;45.22;;;25.27;;
38224;SDS011;24025;48.138;11.428;2024-03-07T09:47:18;44.97;;;23.83;;
38224;SDS011;24025;48.138;11.428;2024-03-07T09:49:51;50.20;;;23.98;;
38224;SDS011;24025;48.138;11.428;2024-03-07T09:52:24;45.15;;;22.85;;
38224;SDS011;24025;48.138;11.428;2024-03-07T09:54:57;48.45;;;24.85;;
38224;SDS011;24025;48.138;11.428;2024-03-07T09:57:30;42.10;;;23.60;;
38224;SDS011;24025;48.138;11.428;2024-03-07T10:00:05;47.78;;;22.98;;
38224;SDS011;24025;48.138;11.428;2024-03-07T10:02:40;44.97;;;23.70;;
38224;SDS011;24025;48.138;11.428;2024-03-07T10:07:46;42.92;;;21.13;;
38224;SDS011;24025;48.138;11.428;2024-03-07T10:10:19;43.42;;;21.60;;
38224;SDS011;24025;48.138;11.428;2024-03-07T10:12:51;41.85;;;21.98;;
38224;SDS011;24025;48.138;11.428;2024-03-07T10:15:28;42.97;;;21.80;;
38224;SDS011;24025;48.138;11.428;2024-03-07T10:18:00;37.08;;;20.98;;
38224;SDS011;24025;48.138;11.428;2024-03-07T10:23:05;39.38;;;20.58;;
38224;SDS011;24025;48.138;11.428;2024-03-07T10:25:39;43.47;;;21.48;;
38224;SDS011;24025;48.138;11.428;2024-03-07T10:28:11;52.55;;;24.02;;
38224;SDS011;24025;48.138;11.428;2024-03-07T10:30:43;63.08;;;26.23;;
38224;SDS011;24025;48.138;11.428;2024-03-07T10:33:19;45.42;;;22.80;;
38224;SDS011;24025;48.138;11.428;2024-03-07T10:35:51;51.53;;;22.15;;
38224;SDS011;24025;48.138;11.428;2024-03-07T10:38:23;40.47;;;23.40;;
38224;SDS011;24025;48.138;11.428;2024-03-07T10:40:55;36.80;;;19.35;;
38224;SDS011;24025;48.138;11.428;2024-03-07T10:43:27;42.83;;;20.77;;
38224;SDS011;24025;48.138;11.428;2024-03-07T10:46:00;30.60;;;18.23;;
38224;SDS011;24025;48.138;11.428;2024-03-07T10:48:38;28.48;;;17.85;;
38224;SDS011;24025;48.138;11.428;2024-03-07T10:51:21;34.33;;;17.25;;
38224;SDS011;24025;48.138;11.428;2024-03-07T10:59:30;34.13;;;17.80;;
38224;SDS011;24025;48.138;11.428;2024-03-07T11:02:15;32.08;;;17.10;;
38224;SDS011;24025;48.138;11.428;2024-03-07T11:04:50;31.30;;;17.25;;
38224;SDS011;24025;48.138;11.428;2024-03-07T11:07:23;34.63;;;18.88;;
38224;SDS011;24025;48.138;11.428;2024-03-07T11:09:55;36.85;;;19.75;;
38224;SDS011;24025;48.138;11.428;2024-03-07T11:12:28;35.53;;;18.48;;
38224;SDS011;24025;48.138;11.428;2024-03-07T11:17:37;32.08;;;18.17;;
38224;SDS011;24025;48.138;11.428;2024-03-07T11:20:56;32.05;;;18.63;;
38224;SDS011;24025;48.138;11.428;2024-03-07T11:23:25;31.20;;;15.95;;
38224;SDS011;24025;48.138;11.428;2024-03-07T11:26:05;29.55;;;17.08;;
38224;SDS011;24025;48.138;11.428;2024-03-07T11:28:39;32.10;;;17.33;;
38224;SDS011;24025;48.138;11.428;2024-03-07T11:31:13;33.13;;;18.60;;
38224;SDS011;24025;48.138;11.428;2024-03-07T11:34:11;33.03;;;16.60;;
38224;SDS011;24025;48.138;11.428;2024-03-07T11:36:47;30.30;;;16.08;;
38224;SDS011;24025;48.138;11.428;2024-03-07T11:39:39;30.33;;;15.95;;
38224;SDS011;24025;48.138;11.428;2024-03-07T11:42:19;30.38;;;16.42;;
38224;SDS011;24025;48.138;11.428;2024-03-07T11:44:50;33.55;;;16.95;;
38224;SDS011;24025;48.138;11.428;2024-03-07T11:47:26;29.00;;;16.92;;
38224;SDS011;24025;48.138;11.428;2024-03-07T11:50:01;36.40;;;17.80;;
38224;SDS011;24025;48.138;11.428;2024-03-07T11:52:33;26.58;;;15.63;;
38224;SDS011;24025;48.138;11.428;2024-03-07T11:55:07;32.20;;;16.10;;
38224;SDS011;24025;48.138;11.428;2024-03-07T11:57:39;28.67;;;15.77;;
38224;SDS011;24025;48.138;11.428;2024-03-07T12:00:12;29.80;;;16.50;;
38224;SDS011;24025;48.138;11.428;2024-03-07T12:02:47;35.97;;;18.10;;
38224;SDS011;24025;48.138;11.428;2024-03-07T12:05:20;35.65;;;17.05;;
38224;SDS011;24025;48.138;11.428;2024-03-07T12:07:52;36.08;;;18.80;;
38224;SDS011;24025;48.138;11.428;2024-03-07T12:10:23;32.77;;;17.67;;
38224;SDS011;24025;48.138;11.428;2024-03-07T12:12:56;32.53;;;18.17;;
38224;SDS011;24025;48.138;11.428;2024-03-07T12:15:28;34.47;;;19.98;;
38224;SDS011;24025;48.138;11.428;2024-03-07T12:18:00;32.33;;;17.42;;
38224;SDS011;24025;48.138;11.428;2024-03-07T12:20:33;30.30;;;16.52;;
38224;SDS011;24025;48.138;11.428;2024-03-07T12:23:09;31.98;;;16.75;;
38224;SDS011;24025;48.138;11.428;2024-03-07T12:25:40;28.88;;;16.08;;
38224;SDS011;24025;48.138;11.428;2024-03-07T12:28:13;33.63;;;16.88;;
38224;SDS011;24025;48.138;11.428;2024-03-07T12:30:50;30.88;;;15.90;;
38224;SDS011;24025;48.138;11.428;2024-03-07T12:33:25;29.27;;;15.30;;
38224;SDS011;24025;48.138;11.428;2024-03-07T12:35:57;28.00;;;16.33;;
38224;SDS011;24025;48.138;11.428;2024-03-07T12:38:38;28.98;;;15.88;;
38224;SDS011;24025;48.138;11.428;2024-03-07T12:41:12;30.45;;;15.90;;
38224;SDS011;24025;48.138;11.428;2024-03-07T12:43:48;31.45;;;15.98;;
38224;SDS011;24025;48.138;11.428;2024-03-07T12:46:20;27.92;;;15.60;;
38224;SDS011;24025;48.138;11.428;2024-03-07T12:48:52;27.52;;;15.45;;
38224;SDS011;24025;48.138;11.428;2024-03-07T12:51:23;26.27;;;14.73;;
38224;SDS011;24025;48.138;11.428;2024-03-07T12:53:56;30.55;;;15.57;;
38224;SDS011;24025;48.138;11.428;2024-03-07T12:56:27;28.95;;;16.08;;
38224;SDS011;24025;48.138;11.428;2024-03-07T12:58:59;33.80;;;16.77;;
38224;SDS011;24025;48.138;11.428;2024-03-07T13:01:31;28.10;;;15.02;;
38224;SDS011;24025;48.138;11.428;2024-03-07T13:04:05;26.08;;;14.05;;
38224;SDS011;24025;48.138;11.428;2024-03-07T13:06:39;30.13;;;16.02;;
38224;SDS011;24025;48.138;11.428;2024-03-07T13:09:14;26.75;;;15.05;;
38224;SDS011;24025;48.138;11.428;2024-03-07T13:11:46;30.75;;;16.85;;
38224;SDS011;24025;48.138;11.428;2024-03-07T13:14:19;29.30;;;15.88;;
38224;SDS011;24025;48.138;11.428;2024-03-07T13:16:50;30.02;;;16.83;;
38224;SDS011;24025;48.138;11.428;2024-03-07T13:19:22;28.52;;;16.02;;
38224;SDS011;24025;48.138;11.428;2024-03-07T13:21:54;27.85;;;14.75;;
38224;SDS011;24025;48.138;11.428;2024-03-07T13:24:27;28.10;;;15.38;;
38224;SDS011;24025;48.138;11.428;2024-03-07T13:26:59;32.40;;;16.40;;
38224;SDS011;24025;48.138;11.428;2024-03-07T13:29:30;27.75;;;15.82;;
38224;SDS011;24025;48.138;11.428;2024-03-07T13:32:02;31.52;;;15.98;;
38224;SDS011;24025;48.138;11.428;2024-03-07T13:34:36;29.48;;;15.38;;
38224;SDS011;24025;48.138;11.428;2024-03-07T13:37:08;27.02;;;15.77;;
38224;SDS011;24025;48.138;11.428;2024-03-07T13:39:41;32.50;;;16.42;;
38224;SDS011;24025;48.138;11.428;2024-03-07T13:42:14;26.40;;;15.40;;
38224;SDS011;24025;48.138;11.428;2024-03-07T13:44:46;28.35;;;15.30;;
38224;SDS011;24025;48.138;11.428;2024-03-07T13:47:18;29.75;;;16.05;;
38224;SDS011;24025;48.138;11.428;2024-03-07T13:49:51;33.20;;;15.88;;
38224;SDS011;24025;48.138;11.428;2024-03-07T13:52:23;26.63;;;15.50;;
38224;SDS011;24025;48.138;11.428;2024-03-07T13:54:58;28.98;;;14.82;;
38224;SDS011;24025;48.138;11.428;2024-03-07T13:57:37;29.40;;;16.98;;
38224;SDS011;24025;48.138;11.428;2024-03-07T14:00:29;30.92;;;14.60;;
38224;SDS011;24025;48.138;11.428;2024-03-07T14:08:56;24.42;;;13.82;;
38224;SDS011;24025;48.138;11.428;2024-03-07T14:11:52;27.70;;;13.65;;
38224;SDS011;24025;48.138;11.428;2024-03-07T14:23:34;26.38;;;12.20;;
38224;SDS011;24025;48.138;11.428;2024-03-07T14:32:21;27.98;;;13.90;;
38224;SDS011;24025;48.138;11.428;2024-03-07T14:34:57;22.90;;;12.90;;
38224;SDS011;24025;48.138;11.428;2024-03-07T14:37:44;27.55;;;13.50;;
38224;SDS011;24025;48.138;11.428;2024-03-07T14:40:22;22.67;;;12.43;;
38224;SDS011;24025;48.138;11.428;2024-03-07T14:42:56;30.02;;;14.45;;
38224;SDS011;24025;48.138;11.428;2024-03-07T14:45:34;25.73;;;14.25;;
38224;SDS011;24025;48.138;11.428;2024-03-07T14:48:10;28.92;;;15.55;;
38224;SDS011;24025;48.138;11.428;2024-03-07T14:50:46;28.40;;;15.88;;
38224;SDS011;24025;48.138;11.428;2024-03-07T14:53:18;27.80;;;15.75;;
38224;SDS011;24025;48.138;11.428;2024-03-07T14:55:51;26.08;;;14.55;;
38224;SDS011;24025;48.138;11.428;2024-03-07T14:58:23;27.23;;;14.50;;
38224;SDS011;24025;48.138;11.428;2024-03-07T15:00:55;30.15;;;16.17;;
38224;SDS011;24025;48.138;11.428;2024-03-07T15:03:29;25.67;;;14.93;;
38224;SDS011;24025;48.138;11.428;2024-03-07T15:06:01;26.35;;;14.43;;
38224;SDS011;24025;48.138;11.428;2024-03-07T15:08:34;28.50;;;15.57;;
38224;SDS011;24025;48.138;11.428;2024-03-07T15:13:52;28.85;;;15.18;;
38224;SDS011;24025;48.138;11.428;2024-03-07T15:16:25;27.52;;;15.45;;
38224;SDS011;24025;48.138;11.428;2024-03-07T15:19:07;29.75;;;16.80;;
38224;SDS011;24025;48.138;11.428;2024-03-07T15:21:39;28.08;;;14.25;;
38224;SDS011;24025;48.138;11.428;2024-03-07T15:24:11;31.77;;;14.68;;
38224;SDS011;24025;48.138;11.428;2024-03-07T15:26:43;31.98;;;16.95;;
38224;SDS011;24025;48.138;11.428;2024-03-07T15:29:18;26.33;;;15.43;;
38224;SDS011;24025;48.138;11.428;2024-03-07T15:31:53;28.42;;;15.20;;
38224;SDS011;24025;48.138;11.428;2024-03-07T15:34:24;31.80;;;15.45;;
38224;SDS011;24025;48.138;11.428;2024-03-07T15:36:58;27.08;;;14.52;;
38224;SDS011;24025;48.138;11.428;2024-03-07T15:39:34;26.08;;;14.00;;